Time;durP1;ratioP1;P1;durP2;ratioP2;P2;SDS_P1;SDS_P2;PMS_P1;PMS_P2;Temp;Humidity;BMP_temperature;BMP_pressure;BME280_temperature;BME280_humidity;BME280_pressure;Samples;Min_cycle;Max_cycle;Signal;HPM_P1;HPM_P2
2022/05/30 00:01:57;;;;;;;6.55;1.73;;;10.50;99.90;;;;;;5045589;28;20037;-64
2022/05/30 00:04:22;;;;;;;9.40;2.28;;;10.60;99.90;;;;;;5054338;28;20033;-66
2022/05/30 00:06:48;;;;;;;9.45;1.50;;;10.60;99.90;;;;;;5051671;28;20366;-64
2022/05/30 00:09:13;;;;;;;10.75;1.48;;;10.60;99.90;;;;;;5047697;28;20416;-63
2022/05/30 00:11:40;;;;;;;8.50;1.73;;;10.60;99.90;;;;;;5052374;28;20442;-65
2022/05/30 00:14:06;;;;;;;7.70;2.03;;;10.50;99.90;;;;;;5053410;28;20108;-62
2022/05/30 00:16:33;;;;;;;7.72;2.92;;;10.50;99.90;;;;;;5053341;28;20074;-62
2022/05/30 00:18:59;;;;;;;8.50;1.75;;;10.50;99.90;;;;;;5053603;28;20029;-60
2022/05/30 00:21:25;;;;;;;3.65;1.45;;;10.40;99.90;;;;;;5052294;28;20071;-62
2022/05/30 00:23:55;;;;;;;4.72;1.48;;;10.40;99.90;;;;;;5052780;28;20032;-63
2022/05/30 00:26:22;;;;;;;4.63;1.45;;;10.40;99.90;;;;;;5050004;28;20029;-63
2022/05/30 00:28:47;;;;;;;9.38;2.05;;;10.40;99.90;;;;;;5050907;28;20051;-65
2022/05/30 00:31:16;;;;;;;9.13;1.60;;;10.40;99.90;;;;;;5051216;28;20083;-64
2022/05/30 00:33:44;;;;;;;12.85;1.80;;;10.40;99.90;;;;;;5049466;28;20017;-64
2022/05/30 00:36:10;;;;;;;4.25;1.30;;;10.40;99.90;;;;;;5049114;28;20024;-64
2022/05/30 00:38:36;;;;;;;6.80;1.50;;;10.40;99.90;;;;;;5052763;28;20021;-63
2022/05/30 00:41:01;;;;;;;8.40;1.70;;;10.40;99.90;;;;;;5052752;28;20040;-60
2022/05/30 00:43:30;;;;;;;15.23;1.90;;;10.50;99.90;;;;;;5052902;28;20354;-64
2022/05/30 00:45:58;;;;;;;3.67;1.05;;;10.40;99.90;;;;;;5051263;28;20040;-62
2022/05/30 00:48:34;;;;;;;10.20;3.17;;;10.40;99.90;;;;;;5052613;28;20094;-63
2022/05/30 00:51:04;;;;;;;23.17;2.88;;;10.30;99.90;;;;;;5043990;28;20108;-64
2022/05/30 00:53:33;;;;;;;12.05;4.00;;;10.20;99.90;;;;;;5053845;28;20013;-62
2022/05/30 00:56:02;;;;;;;16.20;5.40;;;10.20;99.90;;;;;;5050888;28;20013;-63
2022/05/30 00:58:31;;;;;;;10.65;2.85;;;10.00;99.90;;;;;;5052012;28;20017;-63
2022/05/30 01:00:57;;;;;;;13.93;3.00;;;10.00;99.90;;;;;;5047475;28;20021;-61
2022/05/30 01:08:53;;;;;;;8.75;1.50;;;9.70;99.90;;;;;;5051219;28;20027;-65
2022/05/30 01:11:18;;;;;;;11.05;2.03;;;9.60;99.90;;;;;;5053716;28;20063;-60
2022/05/30 01:13:44;;;;;;;10.35;2.80;;;9.50;99.90;;;;;;5051994;28;20667;-63
2022/05/30 01:16:10;;;;;;;10.05;2.10;;;9.50;99.90;;;;;;5053669;28;20021;-61
2022/05/30 01:18:46;;;;;;;13.27;3.05;;;9.30;99.90;;;;;;5049627;28;20025;-62
2022/05/30 01:21:42;;;;;;;8.63;2.33;;;9.20;99.90;;;;;;5041715;28;20029;-61
2022/05/30 01:24:14;;;;;;;11.50;2.78;;;9.20;99.90;;;;;;5036889;28;20025;-64
2022/05/30 01:27:06;;;;;;;9.82;2.47;;;9.10;99.90;;;;;;5039883;28;20080;-62
2022/05/30 01:29:55;;;;;;;12.15;3.13;;;9.10;99.90;;;;;;5045611;28;20029;-64
2022/05/30 01:32:23;;;;;;;6.32;2.20;;;9.10;99.90;;;;;;5047310;28;20037;-63
2022/05/30 01:34:48;;;;;;;11.15;3.58;;;9.10;99.90;;;;;;5043706;28;20104;-62
2022/05/30 01:37:14;;;;;;;7.70;2.60;;;9.10;99.90;;;;;;5053535;28;20116;-60
2022/05/30 01:39:39;;;;;;;10.13;2.38;;;9.20;99.90;;;;;;5050256;28;20029;-61
2022/05/30 01:42:05;;;;;;;8.02;2.47;;;9.20;99.90;;;;;;5048774;28;20029;-61
2022/05/30 01:44:31;;;;;;;12.55;2.80;;;9.20;99.90;;;;;;5053138;28;20532;-60
2022/05/30 01:46:57;;;;;;;11.27;2.90;;;9.20;99.90;;;;;;5051489;28;20111;-60
2022/05/30 01:49:22;;;;;;;10.75;3.10;;;9.10;99.90;;;;;;5049131;28;20026;-61
2022/05/30 01:51:48;;;;;;;7.57;2.50;;;9.10;99.90;;;;;;5049432;28;20031;-62
2022/05/30 01:54:13;;;;;;;16.73;3.92;;;9.00;99.90;;;;;;5052872;28;20017;-62
2022/05/30 01:56:39;;;;;;;10.45;2.95;;;8.90;99.90;;;;;;5040361;28;20483;-62
2022/05/30 01:59:05;;;;;;;11.70;3.22;;;8.90;99.90;;;;;;5038598;28;20049;-62
2022/05/30 02:01:30;;;;;;;11.80;3.53;;;8.80;99.90;;;;;;5033667;28;20025;-61
2022/05/30 02:03:56;;;;;;;8.70;2.55;;;8.80;99.90;;;;;;5052714;28;20410;-61
2022/05/30 02:06:25;;;;;;;11.27;3.00;;;8.80;99.90;;;;;;5052151;28;20028;-61
2022/05/30 02:08:51;;;;;;;7.18;2.53;;;8.80;99.90;;;;;;5052814;28;20029;-61
2022/05/30 02:11:18;;;;;;;8.85;2.05;;;8.80;99.90;;;;;;5051037;28;20074;-61
2022/05/30 02:13:44;;;;;;;8.68;2.05;;;8.80;99.90;;;;;;5052390;28;20453;-62
2022/05/30 02:19:03;;;;;;;8.07;2.72;;;8.80;99.90;;;;;;5052215;28;20484;-61
2022/05/30 02:21:34;;;;;;;12.20;3.65;;;8.80;99.90;;;;;;5038803;28;20064;-62
2022/05/30 02:24:00;;;;;;;10.75;2.90;;;8.80;99.90;;;;;;5051477;28;20067;-62
2022/05/30 02:26:25;;;;;;;7.55;2.20;;;8.80;99.90;;;;;;5059688;28;20077;-62
2022/05/30 02:28:51;;;;;;;5.18;2.28;;;8.80;99.90;;;;;;5056701;28;20033;-61
2022/05/30 02:31:17;;;;;;;11.95;3.88;;;8.80;99.90;;;;;;5052335;28;20061;-61
2022/05/30 02:36:39;;;;;;;14.60;3.97;;;8.70;99.90;;;;;;5032165;28;20483;-61
2022/05/30 02:39:05;;;;;;;9.50;3.22;;;8.70;99.90;;;;;;5046409;28;20025;-61
2022/05/30 02:41:31;;;;;;;6.95;2.42;;;8.70;99.90;;;;;;5050373;28;20065;-61
2022/05/30 02:43:57;;;;;;;7.40;2.40;;;8.70;99.90;;;;;;5051138;28;20492;-61
2022/05/30 02:46:23;;;;;;;12.68;2.75;;;8.70;99.90;;;;;;5052193;28;20369;-61
2022/05/30 02:48:49;;;;;;;10.95;3.50;;;8.60;99.90;;;;;;5052290;28;20120;-62
2022/05/30 02:51:15;;;;;;;8.35;2.75;;;8.70;99.90;;;;;;5052411;28;20111;-62
2022/05/30 02:53:40;;;;;;;12.38;3.28;;;8.70;99.90;;;;;;5050381;28;20344;-62
2022/05/30 02:56:06;;;;;;;9.73;3.30;;;8.70;99.90;;;;;;5039274;28;20017;-60
2022/05/30 02:58:32;;;;;;;8.27;2.58;;;8.60;99.90;;;;;;5051296;28;20021;-62
2022/05/30 03:00:58;;;;;;;7.10;2.42;;;8.70;99.90;;;;;;5051256;28;20108;-61
2022/05/30 03:03:23;;;;;;;8.15;2.53;;;8.60;99.90;;;;;;5051785;28;20112;-62
2022/05/30 03:05:49;;;;;;;12.00;2.83;;;8.70;99.90;;;;;;5051745;28;20057;-61
2022/05/30 03:08:15;;;;;;;11.30;3.15;;;8.70;99.90;;;;;;5051757;28;20108;-62
2022/05/30 03:10:40;;;;;;;8.95;2.80;;;8.70;99.90;;;;;;5051499;28;20029;-62
2022/05/30 03:13:07;;;;;;;7.15;2.83;;;8.70;99.90;;;;;;5051582;28;20029;-63
2022/05/30 03:15:32;;;;;;;14.00;3.50;;;8.70;99.90;;;;;;5050380;28;20025;-61
2022/05/30 03:17:58;;;;;;;11.40;3.75;;;8.70;99.90;;;;;;5051050;28;20463;-62
2022/05/30 03:20:25;;;;;;;12.38;4.00;;;8.80;99.90;;;;;;5047064;28;20053;-62
2022/05/30 03:22:50;;;;;;;13.07;2.53;;;8.70;99.90;;;;;;5037320;28;20506;-61
2022/05/30 03:25:17;;;;;;;6.82;2.58;;;8.70;99.90;;;;;;5031414;28;20105;-62
2022/05/30 03:27:42;;;;;;;9.82;3.53;;;8.70;99.90;;;;;;5051716;28;20369;-62
2022/05/30 03:30:10;;;;;;;8.35;2.90;;;8.70;99.90;;;;;;5051685;28;20036;-61
2022/05/30 03:32:35;;;;;;;17.05;4.90;;;8.70;99.90;;;;;;5051834;28;20056;-61
2022/05/30 03:35:02;;;;;;;11.52;2.88;;;8.70;99.90;;;;;;5054087;28;20024;-61
2022/05/30 03:37:28;;;;;;;7.20;3.45;;;8.70;99.90;;;;;;5053832;28;20021;-61
2022/05/30 03:39:53;;;;;;;10.70;3.58;;;8.70;99.90;;;;;;5055245;28;20380;-61
2022/05/30 03:42:19;;;;;;;14.82;4.10;;;8.70;99.90;;;;;;5054950;28;20035;-62
2022/05/30 03:44:45;;;;;;;8.15;2.83;;;8.70;99.90;;;;;;5055248;28;20354;-62
2022/05/30 03:47:10;;;;;;;13.18;3.88;;;8.70;99.90;;;;;;5055027;28;20690;-61
2022/05/30 03:49:36;;;;;;;11.27;3.10;;;8.70;99.90;;;;;;5054663;28;20472;-61
2022/05/30 03:52:03;;;;;;;10.65;3.38;;;8.70;99.90;;;;;;5054347;28;20522;-60
2022/05/30 03:54:29;;;;;;;15.77;4.35;;;8.80;99.90;;;;;;5054730;28;20102;-62
2022/05/30 03:56:55;;;;;;;8.73;3.28;;;8.80;99.90;;;;;;5053566;28;20058;-61
2022/05/30 03:59:21;;;;;;;8.13;2.70;;;8.90;99.90;;;;;;5054523;28;20131;-61
2022/05/30 04:01:46;;;;;;;8.25;3.13;;;8.90;99.90;;;;;;5054324;28;20072;-62
2022/05/30 04:04:13;;;;;;;8.85;3.15;;;9.00;99.90;;;;;;5054656;28;20025;-62
2022/05/30 04:06:39;;;;;;;7.80;2.92;;;9.00;99.90;;;;;;5054610;28;20024;-61
2022/05/30 04:09:05;;;;;;;9.40;2.88;;;9.10;99.90;;;;;;5054247;28;20031;-61
2022/05/30 04:11:31;;;;;;;8.10;2.63;;;9.20;99.90;;;;;;5054760;28;20384;-61
2022/05/30 04:13:57;;;;;;;8.52;2.60;;;9.20;99.90;;;;;;5054494;28;20025;-62
2022/05/30 04:16:23;;;;;;;6.60;2.67;;;9.30;99.90;;;;;;5053520;28;20129;-61
2022/05/30 04:18:49;;;;;;;9.40;2.75;;;9.30;99.90;;;;;;5052985;28;20032;-62
2022/05/30 04:21:15;;;;;;;11.02;3.50;;;9.40;99.90;;;;;;5053269;28;20028;-62
2022/05/30 04:23:42;;;;;;;7.25;2.90;;;9.40;99.90;;;;;;5053873;28;20029;-61
2022/05/30 04:26:09;;;;;;;10.88;3.03;;;9.50;99.90;;;;;;5054358;28;20028;-61
2022/05/30 04:28:35;;;;;;;10.32;3.05;;;9.60;99.90;;;;;;5054444;28;20024;-62
2022/05/30 04:31:10;;;;;;;9.13;2.30;;;9.60;99.90;;;;;;5054206;28;20103;-62
2022/05/30 04:33:36;;;;;;;9.38;3.20;;;9.70;99.90;;;;;;5052860;28;20424;-62
2022/05/30 04:36:03;;;;;;;5.60;2.13;;;9.70;99.90;;;;;;5054738;28;20033;-61
2022/05/30 04:38:29;;;;;;;5.88;1.98;;;9.70;99.90;;;;;;5049423;28;20024;-61
2022/05/30 04:40:55;;;;;;;7.32;2.17;;;9.70;99.90;;;;;;5045578;28;20028;-61
2022/05/30 04:43:21;;;;;;;14.32;3.70;;;9.80;99.90;;;;;;5051666;28;20029;-62
2022/05/30 04:45:46;;;;;;;12.05;2.83;;;9.90;99.90;;;;;;5053520;28;20033;-61
2022/05/30 04:48:12;;;;;;;7.95;2.55;;;10.00;99.90;;;;;;5052713;28;20021;-61
2022/05/30 04:50:38;;;;;;;16.90;4.65;;;10.20;99.90;;;;;;5054222;28;20040;-61
2022/05/30 04:53:04;;;;;;;11.10;2.30;;;10.50;99.90;;;;;;5053805;28;20430;-62
2022/05/30 04:55:29;;;;;;;7.47;2.22;;;10.80;99.90;;;;;;5053952;28;20032;-62
2022/05/30 04:57:55;;;;;;;12.75;3.15;;;11.10;99.90;;;;;;5054098;28;20369;-62
2022/05/30 05:00:24;;;;;;;11.65;3.65;;;11.40;99.90;;;;;;5053827;28;20021;-62
2022/05/30 05:02:52;;;;;;;7.30;2.90;;;11.70;99.90;;;;;;5053652;28;20469;-62
2022/05/30 05:05:18;;;;;;;41.15;14.68;;;11.80;99.90;;;;;;5053459;28;20046;-64
2022/05/30 05:07:52;;;;;;;16.73;5.35;;;11.90;99.90;;;;;;5053774;28;20029;-62
2022/05/30 05:10:39;;;;;;;25.08;7.68;;;11.90;99.90;;;;;;5054112;28;20028;-60
2022/05/30 05:13:05;;;;;;;12.80;3.55;;;11.90;99.90;;;;;;5054064;28;20017;-65
2022/05/30 05:15:31;;;;;;;11.82;4.38;;;11.80;99.90;;;;;;5053209;28;20032;-62
2022/05/30 05:17:56;;;;;;;8.32;3.30;;;11.80;99.90;;;;;;5053081;28;20287;-60
2022/05/30 05:20:23;;;;;;;7.45;3.63;;;11.80;99.90;;;;;;5053592;28;20033;-60
2022/05/30 05:22:50;;;;;;;5.95;3.13;;;11.80;99.90;;;;;;5052280;28;20048;-65
2022/05/30 05:25:15;;;;;;;17.30;4.65;;;11.90;99.90;;;;;;5053484;28;20021;-60
2022/05/30 05:27:41;;;;;;;28.15;9.13;;;12.00;99.90;;;;;;5053583;28;20025;-64
2022/05/30 05:30:07;;;;;;;13.65;4.18;;;12.30;99.90;;;;;;5051692;28;20108;-65
2022/05/30 05:32:33;;;;;;;16.48;4.60;;;12.60;99.90;;;;;;5053230;28;20052;-64
2022/05/30 05:34:58;;;;;;;8.57;2.55;;;13.00;99.90;;;;;;5046748;28;20048;-62
2022/05/30 05:37:24;;;;;;;8.25;2.15;;;13.50;99.90;;;;;;5052967;28;20059;-64
2022/05/30 05:39:50;;;;;;;8.27;2.10;;;13.60;99.90;;;;;;5051595;28;20083;-61
2022/05/30 05:42:16;;;;;;;6.13;2.33;;;13.50;99.90;;;;;;5052965;28;20083;-64
2022/05/30 05:44:41;;;;;;;10.55;2.50;;;13.30;99.90;;;;;;5052545;28;20051;-62
2022/05/30 05:47:07;;;;;;;9.95;2.10;;;13.30;99.90;;;;;;5052656;28;20104;-63
2022/05/30 05:49:32;;;;;;;8.52;1.98;;;13.40;99.90;;;;;;5052826;28;20035;-63
2022/05/30 05:51:59;;;;;;;6.72;1.30;;;13.50;99.90;;;;;;5053277;28;20048;-63
2022/05/30 05:54:25;;;;;;;5.60;1.40;;;13.70;99.90;;;;;;5052789;28;20028;-60
2022/05/30 05:56:51;;;;;;;1.88;1.27;;;13.80;99.90;;;;;;5052263;28;20376;-63
2022/05/30 05:59:17;;;;;;;8.77;1.17;;;14.10;99.90;;;;;;5051930;28;20493;-62
2022/05/30 06:01:43;;;;;;;10.02;1.80;;;14.80;99.90;;;;;;5051746;28;20488;-63
2022/05/30 06:04:10;;;;;;;2.28;0.60;;;15.30;99.90;;;;;;5053112;28;20029;-63
2022/05/30 06:06:36;;;;;;;2.00;0.85;;;15.30;99.90;;;;;;5052683;28;20021;-62
2022/05/30 06:09:04;;;;;;;3.17;1.08;;;15.30;99.90;;;;;;5051593;28;20031;-62
2022/05/30 06:11:31;;;;;;;2.72;1.10;;;15.10;99.90;;;;;;5051944;28;20017;-63
2022/05/30 06:13:57;;;;;;;5.28;1.10;;;15.00;99.90;;;;;;5051682;28;20017;-62
2022/05/30 06:16:32;;;;;;;1.02;0.52;;;14.80;99.90;;;;;;5052649;28;20036;-61
2022/05/30 06:19:00;;;;;;;3.00;0.73;;;14.70;99.90;;;;;;5052398;28;20025;-63
2022/05/30 06:21:28;;;;;;;1.70;0.63;;;14.60;99.90;;;;;;5052715;28;20025;-63
2022/05/30 06:23:55;;;;;;;3.38;0.70;;;14.50;99.90;;;;;;5052454;28;20515;-63
2022/05/30 06:26:22;;;;;;;2.70;0.93;;;14.50;99.90;;;;;;5051884;28;20017;-64
2022/05/30 06:28:48;;;;;;;4.78;1.10;;;14.60;99.90;;;;;;5052851;28;20012;-63
2022/05/30 06:31:20;;;;;;;1.48;0.75;;;14.70;99.90;;;;;;5052470;28;20049;-64
2022/05/30 06:33:46;;;;;;;;;;;14.70;99.90;;;;;;5053034;28;20025;-60
2022/05/30 06:36:15;;;;;;;1.10;0.65;;;14.80;99.90;;;;;;5046097;28;19901;-63
2022/05/30 06:38:41;;;;;;;1.88;0.60;;;14.90;99.90;;;;;;5050901;28;20043;-61
2022/05/30 06:41:21;;;;;;;1.85;0.80;;;14.90;99.90;;;;;;5051888;28;20029;-63
2022/05/30 06:43:47;;;;;;;4.90;0.50;;;15.10;99.90;;;;;;5051693;28;20114;-61
2022/05/30 06:46:14;;;;;;;2.85;0.40;;;15.90;99.90;;;;;;5049216;28;20661;-64
2022/05/30 06:48:40;;;;;;;0.38;0.15;;;17.10;99.90;;;;;;5050662;28;20087;-63
2022/05/30 06:51:10;;;;;;;0.55;0.30;;;18.40;97.20;;;;;;5052079;28;20435;-64
2022/05/30 06:53:36;;;;;;;2.50;0.50;;;19.50;96.40;;;;;;5051712;28;20025;-64
2022/05/30 06:56:02;;;;;;;1.02;0.20;;;20.10;94.80;;;;;;5052612;28;20075;-61
2022/05/30 06:58:28;;;;;;;3.05;0.30;;;20.30;92.50;;;;;;5052286;28;20025;-64
2022/05/30 07:01:02;;;;;;;1.77;0.50;;;20.40;91.30;;;;;;5051604;28;20051;-63
2022/05/30 07:03:28;;;;;;;2.50;0.70;;;20.00;90.80;;;;;;5052018;28;20029;-61
2022/05/30 07:05:53;;;;;;;3.55;0.70;;;19.60;92.20;;;;;;5052438;28;20516;-64
2022/05/30 07:08:19;;;;;;;1.35;0.70;;;19.20;93.60;;;;;;5045297;28;20048;-63
2022/05/30 07:10:45;;;;;;;4.75;0.93;;;18.70;94.50;;;;;;5054135;28;20291;-63
2022/05/30 07:13:12;;;;;;;1.33;0.68;;;18.40;95.60;;;;;;5056027;28;20024;-61
2022/05/30 07:15:38;;;;;;;3.08;1.38;;;18.00;96.10;;;;;;5056117;28;20119;-64
2022/05/30 07:18:09;;;;;;;1.20;0.75;;;17.60;96.30;;;;;;5055888;28;20105;-61
2022/05/30 07:20:34;;;;;;;2.33;0.52;;;17.10;97.00;;;;;;5054358;28;20074;-63
2022/05/30 07:23:01;;;;;;;4.68;0.90;;;16.70;97.70;;;;;;5055448;28;20116;-61
2022/05/30 07:25:26;;;;;;;5.05;1.05;;;16.30;99.00;;;;;;5054545;28;20017;-63
2022/05/30 07:27:52;;;;;;;3.67;0.80;;;15.80;99.90;;;;;;5054452;28;20031;-61
2022/05/30 07:30:18;;;;;;;6.45;1.10;;;15.30;99.90;;;;;;5054492;28;20433;-61
2022/05/30 07:32:44;;;;;;;5.30;0.88;;;14.90;99.90;;;;;;5054266;28;20082;-64
2022/05/30 07:35:09;;;;;;;3.67;0.70;;;14.60;99.90;;;;;;5055011;28;20025;-63
2022/05/30 07:37:35;;;;;;;5.75;1.20;;;14.30;99.90;;;;;;5051698;28;20020;-62
2022/05/30 07:40:01;;;;;;;4.63;1.10;;;14.00;99.90;;;;;;5055144;28;20017;-65
2022/05/30 07:42:26;;;;;;;4.95;1.33;;;13.80;99.90;;;;;;5055686;28;20391;-64
2022/05/30 07:44:52;;;;;;;5.32;1.25;;;13.70;99.90;;;;;;5055407;28;20106;-64
2022/05/30 07:47:18;;;;;;;2.67;1.00;;;13.60;99.90;;;;;;5054122;28;20021;-64
2022/05/30 07:49:44;;;;;;;2.38;0.90;;;13.50;99.90;;;;;;5055458;28;20021;-62
2022/05/30 07:52:10;;;;;;;4.55;1.25;;;13.40;99.90;;;;;;5055666;28;20024;-64
2022/05/30 07:54:36;;;;;;;5.47;1.10;;;13.40;99.90;;;;;;5055512;28;20021;-65
2022/05/30 07:57:06;;;;;;;3.70;0.93;;;13.40;99.90;;;;;;5054601;28;20499;-61
2022/05/30 07:59:32;;;;;;;2.90;0.80;;;13.30;99.90;;;;;;5051008;28;20025;-62
2022/05/30 08:01:58;;;;;;;3.22;0.90;;;13.30;99.90;;;;;;5053753;28;20033;-64
2022/05/30 08:04:24;;;;;;;1.65;0.98;;;13.10;99.90;;;;;;5054770;28;20052;-63
2022/05/30 08:06:51;;;;;;;2.40;0.80;;;13.10;99.90;;;;;;5055417;28;20421;-62
2022/05/30 08:09:17;;;;;;;6.80;1.10;;;13.00;99.90;;;;;;5053787;28;20017;-62
2022/05/30 08:11:43;;;;;;;5.22;1.02;;;13.00;99.90;;;;;;5053775;28;20406;-62
2022/05/30 08:14:08;;;;;;;2.03;0.70;;;13.00;99.90;;;;;;5053914;28;20159;-64
2022/05/30 08:16:37;;;;;;;3.10;1.00;;;13.00;99.90;;;;;;5054421;28;20120;-63
2022/05/30 08:19:04;;;;;;;3.40;0.90;;;13.10;99.90;;;;;;5052453;28;20017;-61
2022/05/30 08:21:30;;;;;;;1.42;0.73;;;13.20;99.90;;;;;;5053782;28;20453;-63
2022/05/30 08:23:55;;;;;;;4.03;1.13;;;13.30;99.90;;;;;;5054915;28;20032;-63
2022/05/30 08:26:21;;;;;;;2.83;0.98;;;13.50;99.90;;;;;;5055100;28;20028;-63
2022/05/30 08:28:46;;;;;;;4.97;1.30;;;13.50;99.90;;;;;;5055363;28;20033;-61
2022/05/30 08:31:12;;;;;;;7.45;1.10;;;13.70;99.90;;;;;;5054403;28;20090;-63
2022/05/30 08:33:37;;;;;;;2.42;1.00;;;13.90;99.90;;;;;;5054626;28;20330;-63
2022/05/30 08:36:07;;;;;;;8.07;1.58;;;14.10;99.90;;;;;;5054551;28;20016;-64
2022/05/30 08:38:33;;;;;;;4.38;1.00;;;14.50;99.90;;;;;;5054207;28;20032;-62
2022/05/30 08:43:54;;;;;;;2.77;1.17;;;15.20;99.90;;;;;;5043292;28;20091;-62
2022/05/30 08:46:28;;;;;;;3.15;0.95;;;15.50;99.90;;;;;;5045021;28;20036;-64
2022/05/30 08:49:10;;;;;;;2.47;0.80;;;16.00;99.90;;;;;;5054153;28;20051;-64
2022/05/30 08:51:55;;;;;;;3.43;0.70;;;16.50;99.90;;;;;;5054561;28;20048;-63
2022/05/30 08:54:42;;;;;;;3.55;0.98;;;16.90;99.90;;;;;;5054130;28;20029;-65
2022/05/30 08:57:33;;;;;;;5.35;1.13;;;17.60;99.90;;;;;;5054277;28;20032;-64
2022/05/30 09:00:04;;;;;;;2.80;0.80;;;18.30;99.90;;;;;;5050029;28;20067;-65
2022/05/30 09:02:43;;;;;;;0.83;0.50;;;19.30;99.90;;;;;;5052157;28;20028;-64
2022/05/30 09:05:22;;;;;;;1.30;0.50;;;20.60;95.60;;;;;;5053676;28;20056;-62
2022/05/30 09:07:54;;;;;;;4.65;0.88;;;21.80;95.10;;;;;;5053962;28;20082;-62
2022/05/30 09:10:27;;;;;;;8.05;1.00;;;22.70;93.80;;;;;;5053426;28;20037;-64
2022/05/30 09:12:55;;;;;;;1.65;0.60;;;23.70;90.80;;;;;;5053994;28;20017;-66
2022/05/30 09:15:24;;;;;;;2.45;0.65;;;24.90;90.70;;;;;;5053182;28;20040;-63
2022/05/30 09:18:02;;;;;;;2.53;0.70;;;26.40;87.00;;;;;;5052332;28;20058;-63
2022/05/30 09:20:29;;;;;;;2.53;1.13;;;28.40;84.60;;;;;;5062032;28;20028;-63
2022/05/30 09:22:55;;;;;;;6.15;0.80;;;29.70;73.30;;;;;;5069257;28;20059;-64
2022/05/30 09:25:57;;;;;;;5.25;1.08;;;29.30;75.00;;;;;;5067258;28;20415;-61
2022/05/30 09:28:25;;;;;;;2.83;0.55;;;28.20;75.40;;;;;;5053346;28;20457;-60
2022/05/30 09:31:09;;;;;;;2.83;0.75;;;26.80;77.00;;;;;;5052161;28;20858;-64
2022/05/30 09:33:38;;;;;;;4.85;0.90;;;25.30;77.90;;;;;;5064518;28;20025;-62
2022/05/30 09:36:10;;;;;;;3.03;0.73;;;24.00;79.50;;;;;;5072888;28;20062;-63
2022/05/30 09:38:45;;;;;;;5.63;0.70;;;22.90;81.30;;;;;;5073259;28;20024;-62
2022/05/30 09:41:20;;;;;;;3.72;0.70;;;21.90;82.30;;;;;;5045416;28;20025;-64
2022/05/30 09:44:06;;;;;;;4.18;0.65;;;21.00;84.50;;;;;;5037710;28;20053;-61
2022/05/30 09:46:55;;;;;;;2.75;0.70;;;20.30;86.10;;;;;;5053304;28;20100;-64
2022/05/30 09:49:47;;;;;;;0.77;0.40;;;19.60;87.80;;;;;;5053601;28;20052;-63
2022/05/30 09:52:33;;;;;;;1.17;0.50;;;19.00;89.30;;;;;;5073141;28;20086;-61
2022/05/30 09:55:01;;;;;;;4.45;0.60;;;18.40;90.90;;;;;;5071954;28;20055;-62
2022/05/30 09:57:42;;;;;;;3.22;0.70;;;18.10;92.00;;;;;;5073183;28;20036;-64
2022/05/30 10:00:16;;;;;;;5.93;0.82;;;17.90;92.20;;;;;;5071690;28;20409;-61
2022/05/30 10:02:45;;;;;;;1.75;0.70;;;17.70;92.50;;;;;;5072939;28;20047;-60
2022/05/30 10:05:14;;;;;;;4.85;0.95;;;17.60;93.30;;;;;;5072498;28;20115;-63
2022/05/30 10:07:51;;;;;;;5.85;0.93;;;17.50;94.30;;;;;;5072940;28;20443;-63
2022/05/30 10:10:32;;;;;;;6.20;1.00;;;17.50;95.40;;;;;;5058222;28;20115;-62
2022/05/30 10:13:01;;;;;;;5.50;0.93;;;17.40;96.00;;;;;;5052464;28;20021;-64
2022/05/30 10:15:33;;;;;;;3.08;1.02;;;17.30;95.90;;;;;;5040823;28;20112;-62
2022/05/30 10:18:39;;;;;;;3.83;0.98;;;17.30;95.80;;;;;;5050966;28;20025;-62
2022/05/30 10:21:25;;;;;;;2.88;0.40;;;17.30;95.90;;;;;;5051825;28;20017;-64
2022/05/30 10:30:36;;;;;;;3.10;0.65;;;18.80;92.40;;;;;;5051637;28;20025;-64
2022/05/30 10:33:06;;;;;;;6.20;0.80;;;19.20;91.60;;;;;;5052198;28;20529;-64
2022/05/30 10:35:53;;;;;;;3.65;0.68;;;19.60;90.80;;;;;;5046875;28;20442;-65
2022/05/30 10:38:49;;;;;;;2.60;0.70;;;20.00;89.70;;;;;;5031738;28;20029;-64
2022/05/30 10:41:30;;;;;;;1.98;0.68;;;20.60;89.00;;;;;;5030179;28;20036;-63
2022/05/30 10:44:23;;;;;;;4.70;1.50;;;21.10;87.70;;;;;;5039922;28;20025;-62
2022/05/30 10:47:19;;;;;;;3.67;1.05;;;21.20;86.30;;;;;;5032040;28;20114;-64
2022/05/30 10:49:55;;;;;;;2.88;1.25;;;21.30;87.30;;;;;;5032355;28;20354;-62
2022/05/30 10:52:32;;;;;;;5.35;0.82;;;21.40;85.60;;;;;;5035893;28;20457;-63
2022/05/30 10:55:04;;;;;;;4.90;1.83;;;21.50;84.60;;;;;;5046295;28;20036;-63
2022/05/30 10:57:43;;;;;;;7.10;1.83;;;21.70;84.20;;;;;;5038128;28;20468;-64
2022/05/30 11:00:15;;;;;;;6.28;1.00;;;21.80;82.60;;;;;;5041495;28;20025;-63
2022/05/30 11:02:59;;;;;;;2.75;0.80;;;21.80;80.60;;;;;;5050107;28;20048;-64
2022/05/30 11:05:27;;;;;;;4.78;0.82;;;21.90;82.00;;;;;;5051642;28;20074;-62
2022/05/30 11:08:17;;;;;;;4.35;0.75;;;22.10;81.30;;;;;;5050735;28;20025;-63
2022/05/30 11:10:57;;;;;;;4.32;1.48;;;22.10;81.50;;;;;;5057232;28;20028;-62
2022/05/30 11:13:50;;;;;;;4.60;1.48;;;22.10;81.70;;;;;;5063581;28;20052;-64
2022/05/30 11:16:25;;;;;;;5.28;0.80;;;22.00;81.90;;;;;;5052702;28;20027;-62
2022/05/30 11:19:18;;;;;;;3.92;1.23;;;21.90;82.70;;;;;;5038022;28;20071;-63
2022/05/30 11:22:09;;;;;;;3.58;0.90;;;21.80;81.00;;;;;;5048589;28;20025;-65
2022/05/30 11:24:37;;;;;;;3.72;0.70;;;21.60;81.40;;;;;;5051950;28;20058;-63
2022/05/30 11:27:22;;;;;;;5.90;0.80;;;21.30;81.20;;;;;;5050493;28;20026;-63
2022/05/30 11:30:10;;;;;;;4.80;1.50;;;21.10;82.40;;;;;;5050298;28;20029;-65
2022/05/30 11:33:01;;;;;;;2.63;1.42;;;21.10;82.90;;;;;;5050012;28;20098;-62
2022/05/30 11:35:43;;;;;;;3.30;0.88;;;21.20;82.50;;;;;;5031178;28;20026;-63
2022/05/30 11:38:26;;;;;;;3.45;1.02;;;21.30;80.50;;;;;;5031283;28;20021;-65
2022/05/30 11:40:55;;;;;;;1.70;1.02;;;21.50;81.30;;;;;;5031456;28;20029;-62
2022/05/30 11:43:39;;;;;;;4.00;1.30;;;21.70;81.20;;;;;;5039235;28;20044;-62
2022/05/30 11:46:22;;;;;;;3.33;1.65;;;21.90;80.40;;;;;;5051082;28;20107;-65
2022/05/30 11:49:22;;;;;;;5.55;2.10;;;21.70;79.40;;;;;;5051979;28;20025;-62
2022/05/30 11:52:18;;;;;;;3.80;1.33;;;21.90;80.30;;;;;;5051332;28;20025;-62
2022/05/30 11:54:55;;;;;;;11.32;3.53;;;21.90;78.50;;;;;;5050652;28;20028;-63
2022/05/30 11:57:40;;;;;;;9.65;3.60;;;21.90;78.50;;;;;;5054716;28;20091;-63
2022/05/30 12:00:27;;;;;;;6.53;2.65;;;21.80;77.90;;;;;;5048843;28;20028;-62
2022/05/30 12:02:58;;;;;;;6.32;2.65;;;21.60;78.30;;;;;;5054407;28;20029;-63
2022/05/30 12:05:43;;;;;;;9.00;3.33;;;21.40;77.70;;;;;;5054572;28;20052;-65
2022/05/30 12:08:19;;;;;;;4.53;1.25;;;21.20;78.70;;;;;;5055231;28;20046;-60
2022/05/30 12:11:02;;;;;;;8.38;2.83;;;21.10;79.20;;;;;;5055130;28;20060;-62
2022/05/30 12:13:46;;;;;;;5.25;1.40;;;21.00;80.40;;;;;;5054923;28;20104;-63
2022/05/30 12:16:42;;;;;;;4.28;1.45;;;20.90;80.00;;;;;;5054842;28;20075;-61
2022/05/30 12:24:52;;;;;;;5.47;1.23;;;20.60;78.40;;;;;;5049731;28;20067;-62
2022/05/30 12:27:34;;;;;;;8.02;2.10;;;20.50;79.00;;;;;;5040333;28;20153;-61
2022/05/30 12:30:02;;;;;;;7.72;3.10;;;20.50;79.30;;;;;;5034347;28;20035;-61
2022/05/30 12:32:32;;;;;;;2.28;0.73;;;20.40;79.40;;;;;;5034040;28;20053;-63
2022/05/30 12:34:58;;;;;;;3.00;0.70;;;20.30;78.40;;;;;;5052119;28;20025;-60
2022/05/30 12:37:44;;;;;;;1.65;0.60;;;20.20;80.00;;;;;;5066889;28;20090;-62
2022/05/30 12:40:32;;;;;;;5.72;2.20;;;20.20;79.90;;;;;;5054581;28;20082;-62
2022/05/30 12:43:22;;;;;;;4.18;0.80;;;20.40;80.50;;;;;;5061501;28;20037;-65
2022/05/30 12:45:56;;;;;;;8.10;1.90;;;20.80;79.30;;;;;;5054344;28;20020;-65
2022/05/30 12:48:37;;;;;;;4.10;1.20;;;21.50;78.80;;;;;;5054346;28;20055;-62
2022/05/30 12:51:26;;;;;;;4.13;1.25;;;22.40;77.20;;;;;;5054380;28;20108;-63
2022/05/30 12:53:55;;;;;;;4.25;1.10;;;22.70;75.20;;;;;;5057129;28;20033;-63
2022/05/30 12:56:43;;;;;;;4.35;1.30;;;22.50;74.80;;;;;;5074064;28;20445;-63
2022/05/30 12:59:19;;;;;;;3.30;1.10;;;22.40;75.00;;;;;;5074000;28;20052;-63
2022/05/30 13:01:44;;;;;;;3.95;1.15;;;22.30;75.20;;;;;;5073724;28;20020;-62
2022/05/30 13:04:21;;;;;;;7.88;1.17;;;22.30;74.80;;;;;;5073627;28;20032;-65
2022/05/30 13:06:56;;;;;;;3.13;0.80;;;22.50;75.70;;;;;;5055899;28;20029;-60
2022/05/30 13:09:42;;;;;;;3.85;0.95;;;22.90;75.00;;;;;;5053280;28;20381;-63
2022/05/30 13:12:10;;;;;;;6.95;0.90;;;23.20;74.70;;;;;;5053855;28;20025;-63
2022/05/30 13:15:01;;;;;;;3.92;1.10;;;23.30;73.50;;;;;;5049737;28;20032;-62
2022/05/30 13:18:03;;;;;;;2.20;0.82;;;23.40;73.60;;;;;;5061244;28;20485;-61
2022/05/30 13:20:41;;;;;;;4.28;0.80;;;23.50;73.50;;;;;;5053439;28;20032;-62
2022/05/30 13:23:07;;;;;;;5.60;1.05;;;23.50;71.90;;;;;;5053352;28;20047;-61
2022/05/30 13:25:39;;;;;;;4.32;1.02;;;23.30;72.10;;;;;;5051793;28;20028;-62
2022/05/30 13:28:21;;;;;;;2.90;0.63;;;23.20;73.00;;;;;;5051690;28;20024;-61
2022/05/30 13:30:48;;;;;;;5.90;1.05;;;22.90;73.20;;;;;;5047820;28;20046;-61
2022/05/30 13:33:34;;;;;;;6.38;1.48;;;22.70;73.00;;;;;;5033321;28;20021;-62
2022/05/30 13:36:03;;;;;;;2.17;0.50;;;22.60;73.50;;;;;;5033415;28;20031;-62